Aérodrome :
LOGIN :

S'inscrire | Disclaimer

   EN    FR    IT 

 










Légende :    VFR   VFR Marginal   IFR   IFR Intensif   IFR Très Intensif
Visi : 
Plafond : 
>= 8 km
>= 3000ft
5 à 8 km
1000 à 3000 ft
1500m à 5 km
500 à 1000 ft
800 à 1500m
200 à 500 ft
< 800m
< 200 ft
Symboles :   Orages  Brouillard  Fortes neiges  Fortes précipitations  Vent > 20 kt
SIGMETs :   Divers  Orages  Givrage  Turbulence  Onde Orograph.  Cendres Volcan.







- Altitude de l'aérodrome : 468 ft
- Code IATA : GRO


LEGE - Girona Costa Brava

DERNIER METAR :
  • 201400Z 20012KT 160V240 9999 FEW045 23/11 Q1019

METARs EXPIRÉS :
  • 201330Z 18012KT 140V230 9999 FEW045 23/11 Q1019
  • 201300Z 18012KT 150V210 9999 FEW045 23/11 Q1019
  • 201230Z 19010KT 150V220 9999 FEW045 22/11 Q1019
  • 201200Z 19007G17KT 140V260 9999 FEW045 23/12 Q1020
  • 201130Z 20006KT 160V280 9999 FEW040 22/11 Q1020

TAF TAF LEGE
Valide du 20 à 12h jusqu'au 21 à 12h UTC


201100Z 2012/2112 19010KT 9999 FEW020 TX24/2013Z TN12/2106Z
BECMG 2018/2021 VRB03KT
BECMG 2110/2112 18010KT
Pas de NOTAMs connus pour ce terrain.



MET'MAP, la Météo Aéronautique d'un coup d'oeil ! - Copyright ORBIFLY Décembre 2007 - Disclaimer

ORBIFLY MET'MAP TEAM :

Programmation & Développement : Alexandra Zaïnal
Conception & Développement : Baudouin d'Aumeries
Co-Programmation & Développement : Marc-Olivier Méhu
Soutien technique & logistique : Manuel Goepfert

Contact : metmap@orbifly.com




SOURCES & CREDITS :

   NOAA